KEF weather

Keflavik International Airport
Reykjavík, Southern Peninsula, Iceland

Public forecast

Using degrees Celsius for public forecast. Weather courtesy of forecast.io.

Current aviation weather report (METAR) for Keflavik International Airport

Retrieved 2019/11/20 18:30 UTC (0 seconds ago):

BIKF 201830Z 11013KT 9999 FEW017 BKN024 04/03 Q1003

Aviation forecast (TAF) for Keflavik International Airport

Retrieved 2019/11/20 21:43 UTC (0 seconds ago):

TAF BIKF 201939Z 2021/2121 09015KT 9999 -SHRA BKN015 OVC025 TX06/2118Z TN02/2100Z PROB40 TEMPO 2107/2121 5000 RA BR OVC015